Time;durP1;ratioP1;P1;durP2;ratioP2;P2;SDS_P1;SDS_P2;PMS_P1;PMS_P2;Temp;Humidity;BMP_temperature;BMP_pressure;BME280_temperature;BME280_humidity;BME280_pressure;Samples;Min_cycle;Max_cycle;Signal;HPM_P1;HPM_P2
2023/12/16 00:01:49;;;;;;;10.50;6.40;;;;;;;8.36;91.23;102063.05;108142;1287;21989;-60
2023/12/16 00:04:14;;;;;;;13.70;7.20;;;;;;;8.38;91.26;102066.77;108143;1287;21998;-61
2023/12/16 00:06:40;;;;;;;17.50;9.20;;;;;;;8.39;91.57;102071.16;108129;1274;22456;-60
2023/12/16 00:09:06;;;;;;;18.10;8.30;;;;;;;8.41;91.63;102073.83;108154;1276;22000;-61
2023/12/16 00:11:31;;;;;;;12.40;7.50;;;;;;;8.41;91.15;102081.88;108132;1287;21993;-61
2023/12/16 00:13:57;;;;;;;12.70;6.00;;;;;;;8.37;90.53;102087.73;108130;1287;22019;-59
2023/12/16 00:16:24;;;;;;;10.00;5.40;;;;;;;8.29;88.78;102096.46;108161;1277;21998;-62
2023/12/16 00:18:49;;;;;;;8.80;4.90;;;;;;;8.18;86.33;102112.27;108302;1287;22024;-60
2023/12/16 00:21:17;;;;;;;9.70;5.20;;;;;;;8.10;85.16;102124.14;107416;1287;1002595;-60
2023/12/16 00:23:43;;;;;;;10.40;4.70;;;;;;;8.03;85.22;102130.08;107414;1286;1002774;-61
2023/12/16 00:26:08;;;;;;;10.40;4.20;;;;;;;7.96;84.89;102130.77;108166;1283;21991;-61
2023/12/16 00:28:34;;;;;;;7.80;3.70;;;;;;;7.90;84.28;102134.29;108167;1287;21952;-61
2023/12/16 00:30:59;;;;;;;5.50;3.20;;;;;;;7.83;83.88;102134.81;108118;1287;21988;-61
2023/12/16 00:33:25;;;;;;;6.10;3.70;;;;;;;7.77;83.67;102137.60;108162;1277;21989;-61
2023/12/16 00:35:51;;;;;;;7.30;3.60;;;;;;;7.71;83.26;102137.80;108131;1287;21989;-60
2023/12/16 00:38:16;;;;;;;10.00;3.10;;;;;;;7.66;82.55;102135.73;108149;1287;21998;-61
2023/12/16 00:40:42;;;;;;;6.40;2.70;;;;;;;7.62;82.93;102138.23;108142;1282;23133;-60
2023/12/16 00:43:08;;;;;;;6.70;2.90;;;;;;;7.60;83.26;102144.11;108186;1287;21990;-61
2023/12/16 00:45:34;;;;;;;5.00;3.30;;;;;;;7.56;82.79;102138.08;108129;1287;22005;-60
2023/12/16 00:47:59;;;;;;;7.90;2.70;;;;;;;7.55;82.79;102135.23;108133;1281;22001;-59
2023/12/16 00:50:25;;;;;;;5.40;2.50;;;;;;;7.55;83.45;102137.52;108161;1284;21987;-61
2023/12/16 00:52:50;;;;;;;6.70;2.90;;;;;;;7.51;82.39;102131.64;108149;1287;21991;-61
2023/12/16 00:55:16;;;;;;;5.20;2.50;;;;;;;7.48;82.16;102131.41;108145;1280;22029;-62
2023/12/16 00:57:42;;;;;;;6.10;2.60;;;;;;;7.48;82.13;102139.93;108233;1276;22043;-61
2023/12/16 01:00:08;;;;;;;4.40;2.30;;;;;;;7.46;81.61;102143.20;108278;1287;21986;-61
2023/12/16 01:02:34;;;;;;;6.60;2.40;;;;;;;7.43;81.54;102143.31;108236;1274;21997;-61
2023/12/16 01:05:00;;;;;;;4.70;2.80;;;;;;;7.41;81.15;102142.01;108166;1283;21989;-60
2023/12/16 01:07:25;;;;;;;5.30;2.20;;;;;;;7.40;81.29;102145.83;108135;1287;22046;-62
2023/12/16 01:09:51;;;;;;;6.00;2.60;;;;;;;7.38;81.29;102147.01;108199;1287;21991;-60
2023/12/16 01:12:17;;;;;;;5.80;2.70;;;;;;;7.38;81.68;102148.40;108117;1278;21992;-62
2023/12/16 01:14:43;;;;;;;4.20;2.70;;;;;;;7.39;82.13;102149.81;108196;1281;21998;-60
2023/12/16 01:17:08;;;;;;;7.00;2.90;;;;;;;7.39;82.08;102154.52;108159;1283;21997;-63
2023/12/16 01:19:34;;;;;;;6.10;2.80;;;;;;;7.38;82.07;102164.29;107387;1287;1002523;-61
2023/12/16 01:22:00;;;;;;;8.90;2.70;;;;;;;7.38;82.29;102168.13;107352;1281;1002869;-61
2023/12/16 01:24:25;;;;;;;6.90;2.40;;;;;;;7.38;82.21;102168.48;107328;1287;1003155;-61
2023/12/16 01:26:51;;;;;;;4.50;2.50;;;;;;;7.37;82.30;102170.55;108070;1283;21993;-63
2023/12/16 01:29:17;;;;;;;5.90;2.70;;;;;;;7.37;82.45;102177.36;108087;1287;21987;-60
2023/12/16 01:31:42;;;;;;;4.80;2.40;;;;;;;7.37;82.34;102182.26;108102;1288;21998;-62
2023/12/16 01:34:08;;;;;;;5.80;2.50;;;;;;;7.37;82.54;102181.54;108093;1278;21999;-61
2023/12/16 01:36:34;;;;;;;6.50;2.10;;;;;;;7.37;83.10;102173.52;108135;1283;22038;-62
2023/12/16 01:38:59;;;;;;;5.00;2.30;;;;;;;7.36;83.18;102169.64;108147;1288;22044;-60
2023/12/16 01:41:25;;;;;;;4.30;2.50;;;;;;;7.35;83.08;102179.55;108111;1277;21990;-62
2023/12/16 01:43:51;;;;;;;3.80;2.20;;;;;;;7.35;83.36;102187.25;107353;1281;1003037;-60
2023/12/16 01:46:17;;;;;;;5.00;2.10;;;;;;;7.36;83.25;102189.73;108114;1288;21997;-61
2023/12/16 01:48:42;;;;;;;4.00;2.50;;;;;;;7.35;82.98;102194.05;107828;1277;21997;-60
2023/12/16 01:51:08;;;;;;;7.70;2.60;;;;;;;7.33;83.26;102193.83;107979;1288;22059;-62
2023/12/16 01:53:34;;;;;;;7.60;2.50;;;;;;;7.34;83.53;102192.98;108097;1283;21992;-61
2023/12/16 01:56:01;;;;;;;4.80;2.80;;;;;;;7.33;83.50;102179.84;107344;1288;1002268;-61
2023/12/16 01:58:30;;;;;;;7.50;3.10;;;;;;;7.33;83.52;102174.95;108087;1288;22016;-62
2023/12/16 02:00:55;;;;;;;12.20;3.60;;;;;;;7.32;83.42;102170.02;107224;1280;1002607;-60
2023/12/16 02:03:21;;;;;;;5.80;2.60;;;;;;;7.32;83.52;102170.37;108099;1275;22049;-61
2023/12/16 02:05:47;;;;;;;7.00;3.10;;;;;;;7.32;83.55;102168.29;108092;1288;22020;-62
2023/12/16 02:08:13;;;;;;;4.60;2.50;;;;;;;7.34;83.85;102168.17;108111;1288;22011;-62
2023/12/16 02:10:38;;;;;;;8.00;3.30;;;;;;;7.34;83.40;102167.83;108083;1280;22000;-61
2023/12/16 02:13:04;;;;;;;8.50;2.70;;;;;;;7.32;82.79;102169.33;108082;1276;22006;-62
2023/12/16 02:15:30;;;;;;;6.70;2.90;;;;;;;7.31;83.27;102172.63;108160;1276;22037;-62
2023/12/16 02:17:56;;;;;;;8.60;2.80;;;;;;;7.29;83.02;102170.48;108109;1286;21989;-63
2023/12/16 02:20:22;;;;;;;4.50;2.40;;;;;;;7.26;83.00;102167.96;108093;1288;21986;-63
2023/12/16 02:22:47;;;;;;;7.00;2.40;;;;;;;7.23;82.79;102169.44;108082;1277;21989;-62
2023/12/16 02:25:13;;;;;;;5.30;2.70;;;;;;;7.21;82.38;102168.66;108115;1278;21986;-61
2023/12/16 02:27:41;;;;;;;3.60;2.00;;;;;;;7.20;82.15;102173.01;108063;1287;22003;-63
2023/12/16 02:30:08;;;;;;;4.80;2.20;;;;;;;7.17;81.99;102174.14;108162;1287;21991;-61
2023/12/16 02:32:34;;;;;;;5.10;2.40;;;;;;;7.15;82.09;102175.83;108171;1287;24111;-63
2023/12/16 02:35:00;;;;;;;5.10;2.20;;;;;;;7.14;82.17;102176.48;108087;1287;21991;-60
2023/12/16 02:37:26;;;;;;;6.80;3.00;;;;;;;7.14;81.96;102182.27;107315;1287;1003087;-63
2023/12/16 02:39:51;;;;;;;4.50;2.60;;;;;;;7.13;82.26;102191.13;108117;1277;21985;-60
2023/12/16 02:42:17;;;;;;;4.20;2.00;;;;;;;7.12;82.54;102195.09;108117;1281;22450;-62
2023/12/16 02:44:43;;;;;;;3.60;2.30;;;;;;;7.10;82.44;102197.81;108111;1278;22001;-60
2023/12/16 02:47:08;;;;;;;5.50;2.20;;;;;;;7.06;82.03;102199.63;108150;1287;22043;-62
2023/12/16 02:49:34;;;;;;;6.10;2.50;;;;;;;7.01;81.69;102204.38;108136;1278;22046;-60
2023/12/16 02:51:59;;;;;;;6.90;1.80;;;;;;;6.95;81.56;102204.02;108121;1277;21987;-60
2023/12/16 02:54:26;;;;;;;5.80;2.30;;;;;;;6.89;81.32;102205.02;108092;1281;21992;-62
2023/12/16 02:56:52;;;;;;;4.90;2.30;;;;;;;6.82;81.15;102207.24;108140;1287;21990;-62
2023/12/16 02:59:18;;;;;;;6.60;2.20;;;;;;;6.75;81.27;102208.44;108123;1284;21982;-61
2023/12/16 03:01:43;;;;;;;4.00;2.10;;;;;;;6.69;81.12;102217.80;108163;1276;21989;-62
2023/12/16 03:04:09;;;;;;;5.50;2.40;;;;;;;6.60;80.56;102223.65;108156;1284;21996;-60
2023/12/16 03:06:35;;;;;;;13.80;4.10;;;;;;;6.50;79.96;102229.41;108132;1287;24014;-62
2023/12/16 03:09:02;;;;;;;8.50;2.40;;;;;;;6.39;79.83;102230.41;107391;1287;1003121;-62
2023/12/16 03:11:28;;;;;;;3.70;2.20;;;;;;;6.31;80.20;102231.54;108138;1286;23052;-60
2023/12/16 03:13:54;;;;;;;3.30;2.10;;;;;;;6.26;80.39;102235.54;108212;1287;21986;-62
2023/12/16 03:16:19;;;;;;;3.50;1.90;;;;;;;6.22;80.65;102240.64;108134;1287;21987;-61
2023/12/16 03:18:45;;;;;;;6.60;2.30;;;;;;;6.20;81.30;102245.65;108139;1278;21989;-62
2023/12/16 03:21:10;;;;;;;5.50;2.50;;;;;;;6.19;81.48;102250.30;108117;1275;22024;-61
2023/12/16 03:23:36;;;;;;;8.20;2.50;;;;;;;6.17;81.29;102251.98;108209;1287;21996;-61
2023/12/16 03:26:02;;;;;;;4.60;2.50;;;;;;;6.13;81.25;102253.76;108209;1277;21994;-60
2023/12/16 03:28:28;;;;;;;5.90;2.60;;;;;;;6.13;81.79;102257.23;107426;1287;1004178;-61
2023/12/16 03:30:54;;;;;;;5.40;2.10;;;;;;;6.10;81.74;102262.54;108159;1275;21987;-62
2023/12/16 03:33:20;;;;;;;4.10;2.20;;;;;;;6.06;81.54;102268.15;108135;1287;22021;-59
2023/12/16 03:35:45;;;;;;;5.20;2.30;;;;;;;6.03;81.42;102271.70;108128;1284;22023;-62
2023/12/16 03:38:11;;;;;;;4.60;2.70;;;;;;;6.00;81.54;102272.11;108136;1284;21987;-62
2023/12/16 03:40:36;;;;;;;4.70;2.00;;;;;;;6.00;81.85;102273.79;108073;1287;21999;-62
2023/12/16 03:43:02;;;;;;;8.10;2.50;;;;;;;5.99;82.40;102273.41;108073;1280;21997;-62
2023/12/16 03:45:27;;;;;;;6.20;2.30;;;;;;;6.00;82.40;102273.28;108050;1287;21990;-60
2023/12/16 03:47:53;;;;;;;3.70;2.10;;;;;;;5.98;82.16;102269.39;108106;1284;21985;-61
2023/12/16 03:50:18;;;;;;;7.10;2.50;;;;;;;5.91;81.44;102266.18;108098;1283;22003;-62
2023/12/16 03:52:44;;;;;;;7.30;2.60;;;;;;;5.82;80.83;102269.30;108104;1287;22047;-60
2023/12/16 03:55:10;;;;;;;4.50;2.10;;;;;;;5.73;81.01;102273.17;108135;1287;22015;-62
2023/12/16 03:57:35;;;;;;;5.90;2.70;;;;;;;5.69;81.37;102276.84;107380;1287;1006970;-62
2023/12/16 04:00:01;;;;;;;5.70;2.40;;;;;;;5.64;80.84;102276.13;108111;1277;22002;-60
2023/12/16 04:02:27;;;;;;;6.30;2.40;;;;;;;5.56;80.36;102274.77;108085;1278;22037;-62
2023/12/16 04:04:52;;;;;;;5.20;2.50;;;;;;;5.45;79.93;102278.52;108116;1287;21987;-60
2023/12/16 04:07:18;;;;;;;4.20;2.60;;;;;;;5.33;79.43;102281.04;107324;1277;1002299;-61
2023/12/16 04:09:44;;;;;;;5.90;2.40;;;;;;;5.25;79.66;102287.48;107359;1287;1002015;-62
2023/12/16 04:12:10;;;;;;;6.00;2.70;;;;;;;5.20;80.02;102295.83;108219;1283;22041;-61
2023/12/16 04:14:37;;;;;;;4.60;2.20;;;;;;;5.17;80.42;102300.41;107367;1288;1002949;-61
2023/12/16 04:17:02;;;;;;;4.60;2.40;;;;;;;5.18;81.15;102300.11;107356;1283;1002571;-60
2023/12/16 04:19:28;;;;;;;4.90;2.50;;;;;;;5.20;81.43;102300.70;108115;1288;21991;-63
2023/12/16 04:21:54;;;;;;;8.20;2.30;;;;;;;5.24;82.36;102302.79;108091;1284;22500;-60
2023/12/16 04:24:19;;;;;;;8.10;3.20;;;;;;;5.33;83.65;102303.81;108079;1284;22039;-60
2023/12/16 04:26:45;;;;;;;10.70;3.60;;;;;;;5.42;84.00;102311.66;108120;1276;22025;-60
2023/12/16 04:29:10;;;;;;;9.30;3.30;;;;;;;5.50;84.10;102318.42;108127;1277;22000;-62
2023/12/16 04:31:37;;;;;;;4.70;2.40;;;;;;;5.54;83.77;102322.41;108131;1288;21995;-60
2023/12/16 04:34:02;;;;;;;17.20;3.10;;;;;;;5.59;84.50;102322.79;108182;1288;21985;-60
2023/12/16 04:36:28;;;;;;;13.70;3.20;;;;;;;5.64;84.03;102318.78;108114;1287;22050;-61
2023/12/16 04:38:54;;;;;;;6.70;3.00;;;;;;;5.63;83.42;102317.20;108120;1277;22070;-59
2023/12/16 04:41:20;;;;;;;6.90;2.80;;;;;;;5.60;82.34;102320.20;108086;1283;21994;-62
2023/12/16 04:43:45;;;;;;;10.80;2.80;;;;;;;5.55;81.50;102329.04;108109;1283;22000;-61
2023/12/16 04:46:11;;;;;;;7.50;2.70;;;;;;;5.46;81.37;102337.95;107371;1288;1003307;-60
2023/12/16 04:48:37;;;;;;;6.30;2.50;;;;;;;5.40;81.78;102340.32;107358;1281;1003115;-62
2023/12/16 04:51:06;;;;;;;6.00;2.60;;;;;;;5.39;81.89;102340.79;107360;1276;1002251;-62
2023/12/16 04:53:32;;;;;;;8.20;3.20;;;;;;;5.35;81.74;102341.53;108158;1287;22022;-62
2023/12/16 04:55:58;;;;;;;4.70;2.80;;;;;;;5.31;81.51;102342.41;108134;1287;21987;-60
2023/12/16 04:58:24;;;;;;;8.90;2.90;;;;;;;5.23;80.95;102341.02;108098;1284;21990;-62
2023/12/16 05:00:50;;;;;;;12.30;2.80;;;;;;;5.17;80.90;102340.24;108120;1287;21994;-60
2023/12/16 05:03:15;;;;;;;6.50;3.10;;;;;;;5.15;81.57;102337.02;108126;1287;21997;-62
2023/12/16 05:05:41;;;;;;;6.00;3.30;;;;;;;5.15;81.91;102337.77;108136;1283;22006;-62
2023/12/16 05:08:06;;;;;;;6.80;3.00;;;;;;;5.17;82.35;102336.77;108093;1287;22000;-61
2023/12/16 05:10:32;;;;;;;5.50;3.20;;;;;;;5.18;82.51;102333.32;108090;1277;22049;-60
2023/12/16 05:12:58;;;;;;;7.60;2.60;;;;;;;5.18;82.67;102330.35;108077;1284;22033;-59
2023/12/16 05:15:23;;;;;;;6.00;3.10;;;;;;;5.19;83.48;102329.02;108142;1275;21987;-63
2023/12/16 05:17:49;;;;;;;6.30;2.60;;;;;;;5.22;83.48;102329.69;108191;1287;21987;-61
2023/12/16 05:20:15;;;;;;;13.40;4.00;;;;;;;5.21;82.38;102329.99;108151;1287;21988;-60
2023/12/16 05:22:41;;;;;;;6.50;3.00;;;;;;;5.15;81.71;102326.44;108199;1281;21946;-63
2023/12/16 05:25:06;;;;;;;9.80;2.70;;;;;;;5.09;81.53;102326.86;108228;1277;21993;-62
2023/12/16 05:27:32;;;;;;;7.30;2.80;;;;;;;5.04;81.63;102326.15;108169;1287;21993;-62
2023/12/16 05:29:58;;;;;;;5.70;3.20;;;;;;;5.00;81.61;102323.38;108123;1287;21980;-61
2023/12/16 05:32:24;;;;;;;6.90;2.90;;;;;;;4.97;81.46;102319.74;108128;1287;21984;-61
2023/12/16 05:34:53;;;;;;;7.00;3.00;;;;;;;4.89;81.00;102321.52;108150;1281;21990;-62
2023/12/16 05:37:19;;;;;;;6.50;3.20;;;;;;;4.77;80.21;102321.89;108257;1286;22015;-63
2023/12/16 05:39:45;;;;;;;6.80;2.80;;;;;;;4.67;80.17;102325.29;107416;1287;1003948;-63
2023/12/16 05:42:11;;;;;;;6.60;3.20;;;;;;;4.63;80.36;102327.54;108145;1287;22026;-62
2023/12/16 05:44:37;;;;;;;7.60;3.50;;;;;;;4.62;80.66;102332.19;108144;1287;22039;-63
2023/12/16 05:47:03;;;;;;;5.10;3.00;;;;;;;4.60;80.96;102330.41;107407;1287;1002458;-61
2023/12/16 05:49:29;;;;;;;4.80;2.70;;;;;;;4.58;80.55;102327.67;108212;1287;22031;-60
2023/12/16 05:51:54;;;;;;;5.30;3.00;;;;;;;4.51;80.39;102336.06;108195;1283;21993;-62
2023/12/16 05:54:21;;;;;;;7.60;3.00;;;;;;;4.49;80.59;102342.56;108141;1287;23179;-62
2023/12/16 05:56:46;;;;;;;5.80;3.60;;;;;;;4.47;81.07;102333.96;108224;1281;21997;-63
2023/12/16 05:59:12;;;;;;;8.70;3.50;;;;;;;4.45;80.98;102338.61;108135;1287;22002;-62
2023/12/16 06:01:38;;;;;;;5.90;2.90;;;;;;;4.48;81.40;102343.23;108213;1281;21995;-59
2023/12/16 06:04:03;;;;;;;6.50;3.10;;;;;;;4.52;81.56;102347.22;108199;1278;21995;-62
2023/12/16 06:06:30;;;;;;;6.70;3.50;;;;;;;4.53;81.62;102355.09;108158;1287;21989;-60
2023/12/16 06:08:56;;;;;;;7.00;3.70;;;;;;;4.55;81.77;102352.75;108141;1281;21996;-62
2023/12/16 06:11:22;;;;;;;10.10;3.90;;;;;;;4.56;81.65;102349.88;108162;1287;21992;-62
2023/12/16 06:13:51;;;;;;;8.90;4.20;;;;;;;4.63;81.89;102351.20;107394;1287;1002982;-62
2023/12/16 06:16:17;;;;;;;11.30;4.80;;;;;;;4.69;82.07;102351.61;108169;1287;21999;-61
2023/12/16 06:18:44;;;;;;;15.20;6.30;;;;;;;4.71;81.66;102352.58;108132;1287;21990;-61
2023/12/16 06:21:09;;;;;;;24.90;10.70;;;;;;;4.76;82.15;102351.41;108240;1281;22012;-60
2023/12/16 06:23:35;;;;;;;27.30;11.90;;;;;;;4.83;82.50;102349.61;108143;1287;22025;-62
2023/12/16 06:26:01;;;;;;;13.70;7.80;;;;;;;4.87;82.41;102343.52;108176;1287;21993;-62
2023/12/16 06:28:27;;;;;;;13.10;6.60;;;;;;;4.90;82.39;102346.11;108161;1287;22036;-62
2023/12/16 06:30:52;;;;;;;13.00;5.60;;;;;;;4.96;82.42;102347.40;108175;1287;21983;-61
2023/12/16 06:33:18;;;;;;;8.10;4.70;;;;;;;5.02;82.19;102349.02;108223;1287;22131;-61
2023/12/16 06:35:44;;;;;;;10.60;5.50;;;;;;;5.06;82.70;102351.14;108169;1281;23711;-62
2023/12/16 06:38:10;;;;;;;8.90;4.70;;;;;;;5.15;83.02;102349.58;108163;1281;23669;-60
2023/12/16 06:40:35;;;;;;;13.00;5.10;;;;;;;5.24;83.06;102352.70;108085;1287;160123;-60
2023/12/16 06:43:01;;;;;;;8.80;4.50;;;;;;;5.30;82.95;102354.34;108162;1278;22060;-60
2023/12/16 06:45:28;;;;;;;12.10;5.90;;;;;;;5.34;82.53;102354.35;108195;1287;22024;-60
2023/12/16 06:47:54;;;;;;;9.20;4.70;;;;;;;5.37;81.84;102350.84;108154;1276;21996;-61
2023/12/16 06:50:19;;;;;;;11.20;6.30;;;;;;;5.45;82.47;102351.15;108195;1287;22035;-62
2023/12/16 06:52:45;;;;;;;10.50;5.30;;;;;;;5.57;83.44;102347.25;108142;1277;24503;-60
2023/12/16 06:55:10;;;;;;;8.80;5.10;;;;;;;5.64;83.05;102352.60;108129;1287;22069;-62
2023/12/16 06:57:37;;;;;;;10.70;5.40;;;;;;;5.71;82.97;102348.35;108238;1287;21957;-62
2023/12/16 07:00:06;;;;;;;11.50;6.40;;;;;;;5.81;83.43;102345.22;108192;1277;21991;-62
2023/12/16 07:02:32;;;;;;;11.80;6.30;;;;;;;5.91;84.06;102345.30;108155;1281;21996;-60
2023/12/16 07:04:57;;;;;;;12.80;6.30;;;;;;;6.03;84.66;102348.04;108124;1287;21998;-61
2023/12/16 07:07:25;;;;;;;11.30;6.40;;;;;;;6.13;84.64;102351.20;108161;1287;21992;-60
2023/12/16 07:09:50;;;;;;;11.90;7.00;;;;;;;6.22;84.66;102349.59;108096;1287;21992;-60
2023/12/16 07:12:16;;;;;;;11.80;7.30;;;;;;;6.28;84.50;102341.77;108142;1287;22160;-60
2023/12/16 07:14:43;;;;;;;9.70;5.90;;;;;;;6.33;84.41;102344.77;108165;1287;22001;-60
2023/12/16 07:17:10;;;;;;;10.40;5.90;;;;;;;6.35;84.12;102346.25;108094;1284;22008;-61
2023/12/16 07:19:35;;;;;;;9.60;4.90;;;;;;;6.38;83.78;102348.61;108115;1288;22033;-62
2023/12/16 07:22:03;;;;;;;10.60;5.60;;;;;;;6.41;83.51;102341.91;108113;1288;22003;-60
2023/12/16 07:24:29;;;;;;;9.10;5.10;;;;;;;6.44;83.61;102335.23;108130;1283;21990;-60
2023/12/16 07:26:54;;;;;;;12.20;5.30;;;;;;;6.50;84.07;102335.45;108088;1288;23071;-60
2023/12/16 07:29:20;;;;;;;9.90;5.10;;;;;;;6.57;84.13;102331.33;108145;1277;21988;-60
2023/12/16 07:31:47;;;;;;;10.20;5.10;;;;;;;6.62;84.25;102333.25;108124;1278;22021;-63
2023/12/16 07:34:13;;;;;;;7.80;4.30;;;;;;;6.66;84.22;102335.48;108134;1288;23043;-60
2023/12/16 07:36:38;;;;;;;8.10;4.40;;;;;;;6.69;84.23;102332.80;108098;1284;21987;-61
2023/12/16 07:39:04;;;;;;;9.00;4.70;;;;;;;6.72;84.51;102335.54;108094;1288;21957;-60
2023/12/16 07:41:30;;;;;;;9.00;4.20;;;;;;;6.77;84.54;102333.23;108085;1287;22026;-60
2023/12/16 07:43:55;;;;;;;8.30;4.10;;;;;;;6.80;84.46;102333.69;108084;1288;21994;-60
2023/12/16 07:46:24;;;;;;;8.30;4.70;;;;;;;6.83;84.01;102335.21;108102;1284;21993;-60
2023/12/16 07:48:50;;;;;;;6.00;3.70;;;;;;;6.85;83.77;102336.83;108101;1288;21990;-61
2023/12/16 07:51:16;;;;;;;7.40;4.20;;;;;;;6.87;83.81;102338.30;108095;1288;21994;-61
2023/12/16 07:53:47;;;;;;;8.80;5.00;;;;;;;6.87;82.92;102341.60;108107;1288;22008;-63
2023/12/16 07:56:22;;;;;;;22.70;8.80;;;;;;;6.83;82.54;102343.39;108114;1287;22001;-62
2023/12/16 07:58:49;;;;;;;12.90;6.90;;;;;;;6.80;82.31;102349.94;108147;1277;22452;-63
2023/12/16 08:01:15;;;;;;;12.10;6.30;;;;;;;6.77;81.70;102357.66;108193;1288;22031;-60
2023/12/16 08:03:41;;;;;;;18.80;10.40;;;;;;;6.76;81.76;102355.89;108129;1288;21964;-62
2023/12/16 08:06:09;;;;;;;11.00;6.00;;;;;;;6.74;81.12;102351.83;108115;1288;21974;-61
2023/12/16 08:08:38;;;;;;;10.30;5.80;;;;;;;6.72;80.51;102353.83;107448;1288;1003420;-61
2023/12/16 08:11:05;;;;;;;10.70;5.50;;;;;;;6.74;81.17;102348.66;107419;1284;1002446;-61
2023/12/16 08:13:31;;;;;;;8.50;5.10;;;;;;;6.76;81.41;102342.83;108136;1277;21986;-60
2023/12/16 08:15:56;;;;;;;7.90;4.80;;;;;;;6.80;81.14;102346.45;108142;1288;22013;-61
2023/12/16 08:18:22;;;;;;;7.30;4.20;;;;;;;6.85;81.47;102343.82;108126;1284;23044;-60
2023/12/16 08:20:48;;;;;;;8.80;4.60;;;;;;;6.89;81.37;102345.85;108131;1276;21987;-62
2023/12/16 08:23:14;;;;;;;8.20;4.90;;;;;;;6.92;80.66;102342.98;108181;1278;21996;-61
2023/12/16 08:25:39;;;;;;;10.50;6.10;;;;;;;6.93;80.57;102341.30;108099;1288;21983;-61
2023/12/16 08:28:05;;;;;;;9.20;5.30;;;;;;;6.99;80.97;102339.92;108122;1288;22023;-60
2023/12/16 08:30:31;;;;;;;9.40;5.20;;;;;;;7.00;79.82;102336.48;108110;1284;21995;-61
2023/12/16 08:32:56;;;;;;;8.10;4.90;;;;;;;6.95;77.72;102339.80;108145;1288;22030;-59
2023/12/16 08:35:22;;;;;;;9.80;5.50;;;;;;;6.95;77.99;102343.98;108093;1277;21987;-62
2023/12/16 08:37:47;;;;;;;9.30;5.30;;;;;;;6.98;79.37;102345.66;108112;1288;21976;-61
2023/12/16 08:40:13;;;;;;;10.90;5.60;;;;;;;7.03;79.61;102348.09;108155;1277;21988;-61
2023/12/16 08:42:42;;;;;;;9.80;5.40;;;;;;;7.03;78.15;102348.61;108135;1277;22026;-59
2023/12/16 08:45:12;;;;;;;7.90;4.50;;;;;;;7.02;77.55;102345.44;108158;1281;22008;-61
2023/12/16 08:47:37;;;;;;;8.10;4.50;;;;;;;7.04;78.36;102339.39;108101;1287;21998;-60
2023/12/16 08:50:04;;;;;;;8.30;5.10;;;;;;;7.07;78.57;102337.05;108147;1277;22452;-62
2023/12/16 08:52:35;;;;;;;8.60;5.10;;;;;;;7.07;78.35;102334.27;108151;1286;21986;-61
2023/12/16 08:55:01;;;;;;;11.20;5.30;;;;;;;7.09;78.65;102329.96;108182;1288;22011;-60
2023/12/16 08:57:30;;;;;;;15.80;7.50;;;;;;;7.08;78.26;102324.70;108100;1283;22452;-61
2023/12/16 08:59:56;;;;;;;10.70;6.20;;;;;;;7.06;77.63;102324.45;108192;1281;21999;-62
2023/12/16 09:02:21;;;;;;;9.30;5.50;;;;;;;7.02;77.00;102328.67;108113;1288;22455;-62
2023/12/16 09:04:47;;;;;;;10.10;5.30;;;;;;;7.02;77.16;102331.12;108123;1288;21997;-61
2023/12/16 09:07:13;;;;;;;10.70;5.30;;;;;;;7.03;77.28;102330.80;108137;1278;22099;-60
2023/12/16 09:09:39;;;;;;;9.70;5.60;;;;;;;7.04;77.39;102325.96;108091;1277;22007;-62
2023/12/16 09:12:06;;;;;;;11.20;5.40;;;;;;;7.05;77.35;102323.71;108111;1288;21993;-62
2023/12/16 09:14:32;;;;;;;7.60;4.80;;;;;;;7.07;77.42;102324.83;108184;1287;21997;-61
2023/12/16 09:16:57;;;;;;;8.60;5.40;;;;;;;7.13;78.49;102324.35;108206;1276;21986;-62
2023/12/16 09:19:23;;;;;;;10.10;5.10;;;;;;;7.14;77.31;102321.73;107416;1278;1002068;-63
2023/12/16 09:21:49;;;;;;;10.30;6.10;;;;;;;7.18;78.19;102321.70;107391;1288;1002349;-62
2023/12/16 09:24:15;;;;;;;13.20;7.10;;;;;;;7.26;79.12;102323.53;108096;1288;22001;-61
2023/12/16 09:26:41;;;;;;;10.80;6.70;;;;;;;7.36;79.11;102325.23;108126;1288;21956;-63
2023/12/16 09:29:06;;;;;;;12.40;6.80;;;;;;;7.47;79.62;102325.07;108125;1284;21985;-61
2023/12/16 09:31:33;;;;;;;10.40;6.10;;;;;;;7.61;79.66;102317.11;108119;1277;21990;-62
2023/12/16 09:33:58;;;;;;;11.10;6.40;;;;;;;7.70;78.60;102316.52;108073;1288;21992;-61
2023/12/16 09:36:29;;;;;;;12.30;6.50;;;;;;;7.79;77.99;102316.45;108174;1288;22019;-61
2023/12/16 09:38:58;;;;;;;14.70;7.20;;;;;;;7.92;78.27;102312.45;108166;1288;21989;-62
2023/12/16 09:41:28;;;;;;;11.50;7.00;;;;;;;8.12;80.11;102308.86;108179;1283;21985;-63
2023/12/16 09:43:55;;;;;;;14.70;9.10;;;;;;;8.29;79.10;102310.55;108152;1283;21997;-62
2023/12/16 09:46:22;;;;;;;12.40;8.40;;;;;;;8.42;78.31;102312.66;108132;1288;21996;-62
2023/12/16 09:48:48;;;;;;;11.80;7.70;;;;;;;8.50;77.28;102314.65;108123;1284;21991;-62
2023/12/16 09:51:14;;;;;;;13.30;7.70;;;;;;;8.57;77.45;102311.01;108176;1285;22452;-61
2023/12/16 09:53:40;;;;;;;13.80;7.40;;;;;;;8.66;78.81;102307.92;108130;1288;21987;-61
2023/12/16 09:56:06;;;;;;;11.00;6.30;;;;;;;8.77;79.08;102310.29;108177;1277;21984;-62
2023/12/16 09:58:35;;;;;;;10.40;6.70;;;;;;;8.86;78.50;102313.51;108108;1278;22012;-62
2023/12/16 10:01:01;;;;;;;11.30;7.30;;;;;;;8.95;78.26;102308.64;107372;1288;1003882;-61
2023/12/16 10:03:26;;;;;;;13.50;7.70;;;;;;;9.03;78.30;102305.34;107931;1284;21995;-62
2023/12/16 10:05:52;;;;;;;12.20;7.30;;;;;;;9.10;77.35;102303.77;107944;1287;22024;-62
2023/12/16 10:08:18;;;;;;;11.60;7.20;;;;;;;9.18;77.89;102306.07;108112;1287;22179;-61
2023/12/16 10:10:43;;;;;;;11.90;7.20;;;;;;;9.26;78.03;102307.13;108129;1276;21988;-62
2023/12/16 10:13:09;;;;;;;12.50;7.00;;;;;;;9.24;75.20;102304.47;108157;1287;21974;-61
2023/12/16 10:15:36;;;;;;;11.40;7.00;;;;;;;9.21;75.48;102307.55;108134;1281;21986;-62
2023/12/16 10:18:02;;;;;;;14.10;8.90;;;;;;;9.20;76.53;102309.80;108209;1287;22457;-62
2023/12/16 10:20:29;;;;;;;11.90;7.60;;;;;;;9.23;77.47;102309.34;107378;1287;1003013;-61
2023/12/16 10:22:55;;;;;;;13.60;8.20;;;;;;;9.20;75.54;102302.96;108225;1287;21988;-63
2023/12/16 10:25:21;;;;;;;12.30;7.30;;;;;;;9.14;75.27;102302.46;108164;1287;21991;-61
2023/12/16 10:27:47;;;;;;;12.20;7.50;;;;;;;9.18;76.89;102303.98;108210;1287;21988;-63
2023/12/16 10:30:13;;;;;;;14.70;7.40;;;;;;;9.25;77.00;102303.97;108171;1287;22103;-61
2023/12/16 10:32:39;;;;;;;11.00;6.50;;;;;;;9.34;77.78;102300.84;108165;1281;21986;-58
2023/12/16 10:35:06;;;;;;;13.90;7.00;;;;;;;9.38;76.43;102301.30;108215;1286;21985;-62
2023/12/16 10:37:32;;;;;;;11.20;6.80;;;;;;;9.38;75.68;102300.94;107417;1287;1002845;-61
2023/12/16 10:39:58;;;;;;;14.00;7.90;;;;;;;9.27;72.38;102297.52;108154;1287;21992;-61
2023/12/16 10:42:24;;;;;;;11.40;6.90;;;;;;;9.10;71.58;102300.96;108145;1287;21986;-59
2023/12/16 10:44:52;;;;;;;10.10;6.60;;;;;;;8.94;71.41;102303.73;108195;1277;21990;-61
2023/12/16 10:47:18;;;;;;;10.60;6.80;;;;;;;8.83;71.92;102304.31;108112;1287;21996;-60
2023/12/16 10:49:47;;;;;;;12.40;7.40;;;;;;;8.77;72.99;102301.73;107381;1285;1002463;-60
2023/12/16 10:52:16;;;;;;;12.20;6.90;;;;;;;8.73;73.16;102298.13;107377;1283;1002641;-62
2023/12/16 10:54:48;;;;;;;11.50;7.10;;;;;;;8.69;72.93;102298.51;108175;1287;21989;-61
2023/12/16 10:57:29;;;;;;;10.90;6.70;;;;;;;8.70;75.04;102295.95;108142;1287;22024;-62
2023/12/16 11:00:06;;;;;;;12.30;8.00;;;;;;;8.73;74.68;102291.65;108141;1275;22708;-61
2023/12/16 11:02:43;;;;;;;14.10;7.60;;;;;;;8.78;74.61;102292.11;108145;1276;23750;-60
2023/12/16 11:05:14;;;;;;;12.40;7.10;;;;;;;8.86;75.73;102290.22;108188;1275;21986;-60
2023/12/16 11:07:41;;;;;;;11.80;7.00;;;;;;;8.95;76.76;102283.78;108132;1287;21974;-62
2023/12/16 11:10:07;;;;;;;13.00;8.00;;;;;;;9.01;76.17;102282.02;108141;1287;21985;-61
2023/12/16 11:12:37;;;;;;;15.00;7.90;;;;;;;9.01;75.30;102284.11;108125;1281;21995;-63
2023/12/16 11:15:03;;;;;;;12.00;7.80;;;;;;;8.97;74.59;102287.67;108156;1287;22078;-61